Pagrindinis puslapis
METAR-TAF:

METAR-TAF

Oro uostai :

El Borma, Tunisas

platuma: 31-41N, ilguma: 009-10E, Aukštis: 258 m

Dabartinis oras

Ataskaita buvo paskelbta 1 valandą ir 34 minutes, ne 13:00 UTC
Vėjas 14 kt iš Šiaurės, svyruoja nuo Šiaurės/Šiaurės Vakarų ir Šiaurės/Šiaurės Rytų
Temperatūra 36°C
Drėgmė 29%
Slėgis 1010 hPa
Matomumas 10 km arba daugiau
nėra debesų žemiau 1500 m ir nėra kamuolinių lietaus debesų

METAR: DTTR 251300Z 36014KT 330V030 CAVOK 36/15 Q1010

Laikas: 15:34 (14:34 UTC)

Prognozė

Ataskaita buvo paskelbta 2 valandos ir 34 minutes, ne 12:00 UTC
Prognozė galioja nuo 25 metu 13 UTC su 25 metu 22 UTC
Vėjas 14 kt iš Šiaurės
Matomumas 10 km arba daugiau
nėra debesų žemiau 1500 m ir nėra kamuolinių lietaus debesų

TAF: DTTR 251200Z 2513/2522 35014KT CAVOK

Orai ataskaitas ir orų prognozės (METAR, TAF).

turimą stotys yra geltonos ir raudonos taškus žemėlapyje.

Perkelti pele per norėdami pamatyti stoties vardą.

Tada spustelėkite, norėdami matyti oro stebėjimo ir prognozės.

Norėdami pakeisti žemėlapį: spustelėkite ant žalios mygtukų su juodo kryžiaus žemyn,; žalią mygtuką su brūkšneliu, jei norite nutolinti; arba žalių rodyklių gretimoms žemėlapius.


METAR-TAF: